createdAt,value
2023-02-08T00:01:27.996Z,30.40
2023-02-08T00:06:30.933Z,28.40
2023-02-08T00:11:33.778Z,27.40
2023-02-08T00:16:37.974Z,29.60
2023-02-08T00:21:40.752Z,29.40
2023-02-08T00:26:43.519Z,29.20
2023-02-08T00:31:47.777Z,29.40
2023-02-08T00:36:51.438Z,28.60
2023-02-08T00:41:54.266Z,27.00
2023-02-08T00:46:58.599Z,26.80
2023-02-08T00:52:01.422Z,26.80
2023-02-08T00:57:04.708Z,29.00
2023-02-08T01:02:09.103Z,27.00
2023-02-08T01:07:12.083Z,28.40
2023-02-08T01:12:14.848Z,24.75
2023-02-08T01:17:18.901Z,26.20
2023-02-08T01:22:21.631Z,27.00
2023-02-08T01:27:24.346Z,29.20
2023-02-08T01:32:29.437Z,24.75
2023-02-08T01:37:32.520Z,27.00
2023-02-08T01:42:35.316Z,28.00
2023-02-08T01:47:39.700Z,24.75
2023-02-08T01:52:44.312Z,25.50
2023-02-08T01:57:47.597Z,27.20
2023-02-08T02:02:55.578Z,23.25
2023-02-08T02:08:00.274Z,23.75
2023-02-08T02:13:06.045Z,24.00
2023-02-08T02:18:10.930Z,24.00
2023-02-08T02:23:36.380Z,23.50
2023-02-08T02:29:15.679Z,21.75
2023-02-08T02:34:27.159Z,26.20
2023-02-08T02:39:36.781Z,25.25
2023-02-08T02:44:49.792Z,23.80
2023-02-08T02:49:57.958Z,21.00
2023-02-08T02:55:06.208Z,24.75
2023-02-08T03:00:11.192Z,24.25
2023-02-08T03:05:15.346Z,23.75
2023-02-08T03:10:41.584Z,23.00
2023-02-08T03:15:56.503Z,21.25
2023-02-08T03:21:08.147Z,20.25
2023-02-08T03:26:20.271Z,22.50
2023-02-08T03:31:31.716Z,21.50
2023-02-08T03:36:42.877Z,22.75
2023-02-08T03:41:49.701Z,20.00
2023-02-08T03:46:57.898Z,20.75
2023-02-08T03:52:06.326Z,20.75
2023-02-08T03:57:16.682Z,24.00
2023-02-08T04:02:22.732Z,19.00
2023-02-08T04:07:26.882Z,21.00
2023-02-08T04:12:29.637Z,20.00
2023-02-08T04:17:32.805Z,19.00
2023-02-08T04:22:36.900Z,18.25
2023-02-08T04:27:39.693Z,21.50
2023-02-08T04:32:42.471Z,21.25
2023-02-08T04:37:46.550Z,19.75
2023-02-08T04:42:49.334Z,19.25
2023-02-08T04:47:52.327Z,21.75
2023-02-08T04:52:56.452Z,22.25
2023-02-08T04:57:59.432Z,19.00
2023-02-08T05:03:02.171Z,19.25
2023-02-08T05:08:06.622Z,20.75
2023-02-08T05:13:09.672Z,18.50
2023-02-08T05:18:12.469Z,17.25
2023-02-08T05:23:16.769Z,18.00
2023-02-08T05:28:19.988Z,20.00
2023-02-08T05:33:22.808Z,19.00
2023-02-08T05:38:27.076Z,16.25
2023-02-08T05:43:29.957Z,17.00
2023-02-08T05:48:33.299Z,16.00
2023-02-08T05:53:37.802Z,19.25
2023-02-08T05:58:40.542Z,17.00
2023-02-08T06:03:43.614Z,18.75
2023-02-08T06:08:48.013Z,16.25
2023-02-08T06:13:50.880Z,17.50
2023-02-08T06:18:53.644Z,18.25
2023-02-08T06:23:57.732Z,18.00
2023-02-08T06:29:00.606Z,17.75
2023-02-08T06:34:03.387Z,14.50
2023-02-08T06:39:07.674Z,17.50
2023-02-08T06:44:10.423Z,16.50
2023-02-08T06:49:13.216Z,18.50
2023-02-08T06:54:17.447Z,15.00
2023-02-08T06:59:20.238Z,14.00
2023-02-08T07:04:23.106Z,18.00
2023-02-08T07:09:27.327Z,18.00
2023-02-08T07:14:30.161Z,16.25
2023-02-08T07:19:33.016Z,18.50
2023-02-08T07:24:38.605Z,15.00
2023-02-08T07:29:41.525Z,12.00
2023-02-08T07:34:45.562Z,14.25
2023-02-08T07:39:49.667Z,14.00
2023-02-08T07:44:52.492Z,15.25
2023-02-08T07:49:55.176Z,45.00
2023-02-08T07:54:59.334Z,51.20
2023-02-08T08:00:02.133Z,51.20
2023-02-08T08:05:14.862Z,51.00
2023-02-08T08:10:19.125Z,55.60
2023-02-08T08:15:22.017Z,51.00
2023-02-08T08:20:25.180Z,49.40
2023-02-08T08:25:29.568Z,42.80
2023-02-08T08:30:32.361Z,43.20
2023-02-08T08:35:35.168Z,42.20
2023-02-08T08:40:39.626Z,40.20
2023-02-08T08:45:42.596Z,38.40
2023-02-08T08:50:45.404Z,38.00
2023-02-08T08:55:49.509Z,39.20
2023-02-08T09:00:52.447Z,33.20
2023-02-08T09:05:55.202Z,35.80
2023-02-08T09:11:05.405Z,33.60
2023-02-08T09:16:10.410Z,35.80
2023-02-08T09:21:15.304Z,34.40
2023-02-08T09:26:21.001Z,32.60
2023-02-08T09:31:25.780Z,33.60
2023-02-08T09:36:33.143Z,33.20
2023-02-08T09:42:04.605Z,33.60
2023-02-08T09:47:15.693Z,31.60
2023-02-08T09:52:24.791Z,32.20
2023-02-08T09:57:33.030Z,31.00
2023-02-08T10:02:36.268Z,31.00
2023-02-08T10:07:42.006Z,29.60
2023-02-08T10:12:54.133Z,30.80
2023-02-08T10:18:24.522Z,35.40
2023-02-08T10:23:45.137Z,34.20
2023-02-08T10:29:12.551Z,35.60
2023-02-08T10:34:27.271Z,41.40
2023-02-08T10:39:35.665Z,42.40
2023-02-08T10:44:58.826Z,45.40
2023-02-08T10:50:06.012Z,41.00
2023-02-08T10:55:15.122Z,40.40
2023-02-08T11:00:22.502Z,42.20
2023-02-08T11:05:34.894Z,38.60
2023-02-08T11:10:39.266Z,37.40
2023-02-08T11:15:47.915Z,37.20
2023-02-08T11:20:53.540Z,37.60
2023-02-08T11:26:15.289Z,31.60
2023-02-08T11:31:21.749Z,35.00
2023-02-08T11:36:24.797Z,32.80
2023-02-08T11:41:27.796Z,33.80
2023-02-08T11:46:34.873Z,30.60
2023-02-08T11:51:38.846Z,31.80
2023-02-08T11:56:41.665Z,33.40
2023-02-08T12:01:46.439Z,32.00
2023-02-08T12:07:14.085Z,30.80
2023-02-08T12:12:26.896Z,31.00
2023-02-08T12:18:00.403Z,28.80
2023-02-08T12:23:25.316Z,30.20
2023-02-08T12:28:42.927Z,29.20
2023-02-08T12:33:57.401Z,29.40
2023-02-08T12:39:46.879Z,28.40
2023-02-08T12:45:17.618Z,27.80
2023-02-08T12:50:28.385Z,28.20
2023-02-08T12:55:35.139Z,28.40
2023-02-08T13:00:42.893Z,25.60
2023-02-08T13:06:01.592Z,26.40
2023-02-08T13:11:19.415Z,37.40
2023-02-08T13:16:29.391Z,40.00
2023-02-08T13:21:37.978Z,42.00
2023-02-08T13:26:41.846Z,39.80
2023-02-08T13:31:48.705Z,39.20
2023-02-08T13:36:57.317Z,36.40
2023-02-08T13:42:01.236Z,35.80
2023-02-08T13:47:05.597Z,37.00
2023-02-08T13:52:09.993Z,35.60
2023-02-08T13:57:42.548Z,33.80
2023-02-08T14:03:00.757Z,37.00
2023-02-08T14:08:07.288Z,33.40
2023-02-08T14:13:28.913Z,32.00
2023-02-08T14:18:31.981Z,32.80
2023-02-08T14:23:40.719Z,33.60
2023-02-08T14:28:48.740Z,31.00
2023-02-08T14:33:54.996Z,31.00
2023-02-08T14:39:23.321Z,31.00
2023-02-08T14:44:48.838Z,32.00
2023-02-08T14:49:59.633Z,30.00
2023-02-08T14:55:09.025Z,30.60
2023-02-08T15:00:21.647Z,33.60
2023-02-08T15:05:26.943Z,31.20
2023-02-08T15:10:35.062Z,30.80
2023-02-08T15:15:41.491Z,30.60
2023-02-08T15:20:45.308Z,30.40
2023-02-08T15:25:58.013Z,28.00
2023-02-08T15:31:03.503Z,30.60
2023-02-08T15:36:09.124Z,30.00
2023-02-08T15:41:15.662Z,31.20
2023-02-08T15:46:23.182Z,27.00
2023-02-08T15:51:27.426Z,29.00
2023-02-08T15:56:39.466Z,29.00
2023-02-08T16:01:47.542Z,30.00
2023-02-08T16:06:53.130Z,28.60
2023-02-08T16:12:01.029Z,26.60
2023-02-08T16:17:04.300Z,26.40
2023-02-08T16:22:25.499Z,28.40
2023-02-08T16:27:33.713Z,29.40
2023-02-08T16:32:39.445Z,26.80
2023-02-08T16:37:43.305Z,26.80
2023-02-08T16:42:47.455Z,25.20
2023-02-08T16:47:53.108Z,27.20
2023-02-08T16:52:59.781Z,28.00
2023-02-08T16:58:03.946Z,28.00
2023-02-08T17:03:06.766Z,24.60
2023-02-08T17:08:15.817Z,28.60
2023-02-08T17:13:21.481Z,24.00
2023-02-08T17:18:24.645Z,29.00
2023-02-08T17:23:27.950Z,25.20
2023-02-08T17:28:34.457Z,23.60
2023-02-08T17:33:40.025Z,23.60
2023-02-08T17:38:45.021Z,25.60
2023-02-08T17:43:51.639Z,25.40
2023-02-08T17:48:55.445Z,25.40
2023-02-08T17:53:58.471Z,26.00
2023-02-08T17:59:03.960Z,24.25
2023-02-08T18:04:06.877Z,27.25
2023-02-08T18:09:09.724Z,24.75
2023-02-08T18:14:14.252Z,23.50
2023-02-08T18:19:17.083Z,24.40
2023-02-08T18:24:19.822Z,22.00
2023-02-08T18:29:24.597Z,25.00
2023-02-08T18:34:27.408Z,23.75
2023-02-08T18:39:30.412Z,22.25
2023-02-08T18:44:36.706Z,25.00
2023-02-08T18:49:41.339Z,20.75
2023-02-08T18:54:44.053Z,25.50
2023-02-08T18:59:48.467Z,24.00
2023-02-08T19:04:51.294Z,21.75
2023-02-08T19:09:54.147Z,24.75
2023-02-08T19:14:58.571Z,25.60
2023-02-08T19:20:01.317Z,27.40
2023-02-08T19:25:04.116Z,26.75
2023-02-08T19:30:10.147Z,28.00
2023-02-08T19:35:13.049Z,27.40
2023-02-08T19:40:16.795Z,29.00
2023-02-08T19:45:21.213Z,24.60
2023-02-08T19:50:23.968Z,25.40
2023-02-08T19:55:26.841Z,28.20
2023-02-08T20:00:31.168Z,30.60
2023-02-08T20:05:36.635Z,25.80
2023-02-08T20:10:39.933Z,26.00
2023-02-08T20:15:45.666Z,29.40
2023-02-08T20:21:00.406Z,27.80
2023-02-08T20:26:10.761Z,23.60
2023-02-08T20:31:17.267Z,27.60
2023-02-08T20:36:21.974Z,25.80
2023-02-08T20:41:28.027Z,27.75
2023-02-08T20:46:35.948Z,25.80
2023-02-08T20:51:38.805Z,26.40
2023-02-08T20:56:41.701Z,25.80
2023-02-08T21:01:46.501Z,24.40
2023-02-08T21:06:49.480Z,25.40
2023-02-08T21:11:52.906Z,23.80
2023-02-08T21:16:58.747Z,23.80
2023-02-08T21:22:02.982Z,24.80
2023-02-08T21:27:06.651Z,23.60
2023-02-08T21:32:10.821Z,23.20
2023-02-08T21:37:13.591Z,22.80
2023-02-08T21:42:16.480Z,26.40
2023-02-08T21:47:20.775Z,21.80
2023-02-08T21:52:41.131Z,22.40
2023-02-08T21:57:44.044Z,24.60
2023-02-08T22:02:48.176Z,17.50
2023-02-08T22:07:54.116Z,22.75
2023-02-08T22:12:57.864Z,22.50
2023-02-08T22:18:03.464Z,22.75
2023-02-08T22:23:06.410Z,23.20
2023-02-08T22:28:09.174Z,21.00
2023-02-08T22:33:13.505Z,25.00
2023-02-08T22:38:16.327Z,21.50
2023-02-08T22:43:19.284Z,18.50
2023-02-08T22:48:23.462Z,19.75
2023-02-08T22:53:26.365Z,20.00
2023-02-08T22:58:29.457Z,22.50
2023-02-08T23:03:33.671Z,22.25
2023-02-08T23:08:37.789Z,20.75
2023-02-08T23:13:40.641Z,20.75
2023-02-08T23:18:45.377Z,21.00
2023-02-08T23:23:49.471Z,19.00
2023-02-08T23:28:54.714Z,19.50
2023-02-08T23:33:59.561Z,20.50
2023-02-08T23:39:03.453Z,18.75
2023-02-08T23:44:06.496Z,18.25
2023-02-08T23:49:10.604Z,19.50
2023-02-08T23:54:13.497Z,20.00
2023-02-08T23:59:16.410Z,21.00
